Flight Track Log - Related Links

Times and Time Zones

All times are in EDT time to prevent confusion due to time zone crossing. See the CTL62 flight status page for this flight to view local times or setup timezone preferences in your user account.

Time Position Orientation Groundspeed Altitude Reporting Facility
EDT Latitude Longitude Course Direction KTS MPH feet Rate Location/Type
Mon 11:44:46 PM 40.0864 -83.1214 300° West 117 135 2,500  Level Indianapolis Center
Mon 11:45:28 PM 40.1014 -83.1478 307° West 123 142 3,400 1,059 Climbing Indianapolis Center
Mon 11:46:11 PM 40.1136 -83.1672 309° West 123 142 4,000 787 Climbing Indianapolis Center
Mon 11:46:29 PM 40.1197 -83.1853 294° West 128 147 4,200 200 Climbing Indianapolis Center
Mon 11:47:11 PM 40.1347 -83.2111 307° West 131 151 4,200  Level Indianapolis Center
Mon 11:48:12 PM 40.1597 -83.2636 302° West 152 175 4,200 -49 Level Indianapolis Center
Mon 11:49:13 PM 40.1886 -83.3136 307° West 165 190 4,100 295 Descending Indianapolis Center
Mon 11:50:00 PM 40.2921 -83.5365 300° West  Level FlightAware Approximate
Mon 11:50:14 PM 40.2147 -83.3636 304° West 167 192 4,800  Level Indianapolis Center
Mon 11:51:15 PM 40.2364 -83.4036 305° West 148 170 5,800 1,033 Climbing Indianapolis Center
Mon 11:52:16 PM 40.2539 -83.4450 299° West 137 158 6,900 934 Climbing Indianapolis Center
Mon 11:53:17 PM 40.2744 -83.4936 299° West 131 151 7,700 590 Climbing Indianapolis Center
Mon 11:54:18 PM 40.2953 -83.5347 304° West 133 153 8,100 148 Climbing Indianapolis Center
Mon 11:55:19 PM 40.3169 -83.5847 300° West 143 165 8,000 50 Descending Indianapolis Center
Mon 11:56:19 PM 40.3389 -83.6392 298° West 157 181 8,200 99 Climbing Indianapolis Center
Mon 11:57:20 PM 40.3614 -83.6925 299° West 164 189 8,200  Level Indianapolis Center
Mon 11:58:21 PM 40.3894 -83.7411 307° West 167 192 8,200  Level Indianapolis Center
Mon 11:59:22 PM 40.4153 -83.7903 305° West 164 189 8,200  Level Indianapolis Center
Tue 12:00:23 AM 40.4408 -83.8436 302° West 168 193 8,200  Level Indianapolis Center
Tue 12:01:23 AM 40.4656 -83.8947 302° West 167 192 8,200  Level Indianapolis Center
Tue 12:02:24 AM 40.4908 -83.9478 302° West 168 193 8,200 -49 Level Indianapolis Center
Tue 12:03:25 AM 40.5186 -83.9981 306° West 169 194 8,100 -49 Descending Indianapolis Center
Tue 12:04:26 AM 40.5456 -84.0489 305° West 170 196 8,100 -50 Level Indianapolis Center
Tue 12:05:26 AM 40.5703 -84.1031 301° West 170 196 8,000  Descending Indianapolis Center
Tue 12:06:27 AM 40.5956 -84.1550 303° West 168 193 8,100 49 Climbing Indianapolis Center
Tue 12:07:28 AM 40.6186 -84.2081 300° West 167 192 8,100  Level Indianapolis Center
Tue 12:08:29 AM 40.6425 -84.2606 301° West 165 190 8,100  Level Indianapolis Center
Tue 12:09:29 AM 40.6672 -84.3131 302° West 166 191 8,100  Level Indianapolis Center
Tue 12:10:30 AM 40.6939 -84.3625 305° West 166 191 8,100  Level Indianapolis Center
Tue 12:10:55 AM 40.7056 -84.3822 308° West 164 189 8,100  Level Chicago Center
Tue 12:11:55 AM 40.7319 -84.4311 305° West 164 189 8,100  Level Chicago Center
Tue 12:12:56 AM 40.7569 -84.4819 303° West 165 190 8,100  Level Chicago Center
Tue 12:13:56 AM 40.7847 -84.5283 308° West 163 188 8,100  Level Chicago Center
Tue 12:14:57 AM 40.8114 -84.5794 305° West 166 191 8,100 -50 Level Chicago Center
Tue 12:15:57 AM 40.8364 -84.6317 302° West 168 193 8,000  Descending Chicago Center
Tue 12:16:57 AM 40.8642 -84.6808 307° West 168 193 8,100 50 Climbing Chicago Center
Tue 12:17:58 AM 40.8922 -84.7292 308° West 167 192 8,100  Level Chicago Center
Tue 12:18:58 AM 40.9150 -84.7822 300° West 166 191 8,100  Level Chicago Center
Tue 12:19:59 AM 40.9336 -84.8397 293° West 168 193 8,100  Level Chicago Center
Tue 12:20:59 AM 40.9525 -84.8956 294° West 168 193 8,100 -50 Level Chicago Center
Tue 12:22:00 AM 40.9714 -84.9525 294° West 168 193 8,000  Descending Chicago Center
Tue 12:23:00 AM 40.9922 -85.0081 296° West 169 194 8,100 50 Climbing Chicago Center
Tue 12:24:00 AM 41.0144 -85.0639 298° West 170 196 8,100  Level Chicago Center
Tue 12:25:01 AM 41.0364 -85.1175 299° West 167 192 8,100  Level Chicago Center
Tue 12:26:01 AM 41.0583 -85.1703 299° West 165 190 8,100  Level Chicago Center
Tue 12:27:01 AM 41.0783 -85.2264 295° West 167 192 8,100 -50 Level Chicago Center
Tue 12:28:02 AM 41.1006 -85.2828 298° West 170 196 8,000 -50 Descending Chicago Center
Tue 12:29:02 AM 41.1244 -85.3344 302° West 167 192 8,000 50 Level Chicago Center
Tue 12:30:02 AM 41.1467 -85.3881 299° West 166 191 8,100 50 Climbing Chicago Center
Tue 12:31:03 AM 41.1678 -85.4428 297° West 166 191 8,100  Level Chicago Center
Tue 12:32:03 AM 41.1864 -85.4986 294° West 166 191 8,100  Level Chicago Center
Tue 12:33:03 AM 41.2069 -85.5522 297° West 164 189 8,100  Level Chicago Center
Tue 12:34:04 AM 41.2269 -85.6053 297° West 162 186 8,100  Level Chicago Center
Tue 12:35:04 AM 41.2481 -85.6597 297° West 165 190 8,100  Level Chicago Center
Tue 12:36:04 AM 41.2700 -85.7119 299° West 163 188 8,100  Level Chicago Center
Tue 12:37:04 AM 41.2933 -85.7622 302° West 160 184 8,100  Level Chicago Center
Tue 12:38:05 AM 41.3200 -85.8094 307° West 160 184 8,100  Level Chicago Center
Tue 12:39:05 AM 41.3564 -85.8447 324° Northwest 161 185 8,100  Level Chicago Center
Tue 12:40:06 AM 41.3739 -85.8981 294° West 155 178 8,100  Level Chicago Center
Tue 12:41:06 AM 41.3969 -85.9478 302° West 156 180 8,100  Level Chicago Center
Tue 12:42:06 AM 41.4175 -85.9997 298° West 158 182 8,100  Level Chicago Center
Tue 12:43:06 AM 41.4378 -86.0517 298° West 158 182 8,100  Level Chicago Center
Tue 12:44:07 AM 41.4589 -86.1042 298° West 160 184 8,100  Level Chicago Center
Tue 12:45:07 AM 41.4797 -86.1558 298° West 158 182 8,100  Level Chicago Center
Tue 12:46:07 AM 41.5006 -86.2078 298° West 159 183 8,100  Level Chicago Center
Tue 12:47:08 AM 41.5233 -86.2586 301° West 160 184 8,100  Level Chicago Center
Tue 12:48:08 AM 41.5436 -86.3089 298° West 156 180 8,100  Level Chicago Center
Tue 12:49:08 AM 41.5644 -86.3603 298° West 157 181 8,100  Level Chicago Center
Tue 12:50:08 AM 41.5842 -86.4114 297° West 155 178 8,100 -50 Level Chicago Center
Tue 12:51:09 AM 41.6044 -86.4622 298° West 155 178 8,000  Descending Chicago Center
Tue 12:52:09 AM 41.6253 -86.5122 299° West 156 180 8,100 50 Climbing Chicago Center
Tue 12:53:09 AM 41.6494 -86.5742 298° West 155 178 8,100  Level Chicago Center
Tue 12:54:09 AM 41.6672 -86.6272 294° West 158 182 8,100 50 Level Chicago Center
Tue 12:55:10 AM 41.6861 -86.6778 297° West 155 178 8,200  Climbing Chicago Center
Tue 12:56:10 AM 41.7053 -86.7292 297° West 154 177 8,100 -50 Descending Chicago Center
Tue 12:57:10 AM 41.7239 -86.7800 296° West 154 177 8,100  Level Chicago Center
Tue 12:58:10 AM 41.7433 -86.8319 297° West 156 180 8,100  Level Chicago Center
Tue 12:59:10 AM 41.7622 -86.8839 296° West 157 181 8,100  Level Chicago Center
Tue 01:00:11 AM 41.7800 -86.9342 295° West 150 173 8,100  Level Chicago Center
Tue 01:01:11 AM 41.7997 -86.9842 298° West 151 174 8,100  Level Chicago Center
Tue 01:02:11 AM 41.8189 -87.0347 297° West 152 175 8,100 -50 Level Chicago Center
Tue 01:03:11 AM 41.8378 -87.0831 298° West 149 171 8,000 -100 Descending Chicago Center
Tue 01:04:11 AM 41.8547 -87.1336 294° West 149 171 7,900 -50 Descending Chicago Center
Tue 01:05:12 AM 41.8719 -87.1828 295° West 147 169 7,900 -50 Level Chicago Center
Tue 01:06:12 AM 41.8906 -87.2317 297° West 147 169 7,800 -300 Descending Chicago Center
Tue 01:07:12 AM 41.9111 -87.2853 297° West 158 182 7,300 -650 Descending Chicago Center
Tue 01:08:12 AM 41.9317 -87.3433 295° West 170 196 6,500 -744 Descending Chicago Center
Tue 01:09:13 AM 41.9531 -87.4000 297° West 172 198 5,800 -767 Descending Chicago Center
Tue 01:09:38 AM 41.9667 -87.4333 299° West 170 196 5,400 -847 Descending Chicago TRACON
Tue 01:10:38 AM 41.9833 -87.4833 294° West 171 197 4,600 -818 Descending Chicago TRACON
Tue 01:11:50 AM 42.0167 -87.5500 304° West 183 211 3,600 -727 Descending Chicago TRACON
Tue 01:12:50 AM 42.0333 -87.6167 289° West 183 211 3,000 -333 Descending Chicago TRACON
Tue 01:13:38 AM 42.0667 -87.6500 323° Northwest 178 205 3,000  Level Chicago TRACON
Tue 01:14:44 AM 42.1167 -87.6833 334° Northwest 174 200 3,000  Level Chicago TRACON
Tue 01:15:14 AM 42.1317 -87.7111 306° West 179 206 3,000 -67 Level Chicago Center
Tue 01:16:14 AM 42.1475 -87.7503 299° West 174 200 2,900 -100 Descending Chicago Center

Login

Don't have an account? Register now (free) for customized features, flight alerts, and more!